Star Epsilon — V7NZ7 — position and weather

sailwx.info

Track history (hours):
 
Tides and Currents Weather Stations Pressure Air Temp Water Temp Dewpoint Dewpoint Depression Visibility Wind Speed Wind Dir Waves Ship Positions

Star Epsilon

Last reported at 2016-Aug-24 18:33 UTC. Time now 2016-Sep-28 11:57 UTC.
Position S 29°04' E 034°05'.
Warning: this ship's position is 34 days out of date.

Length 189 m; draft 9.9 m.

Type: Ship. MMSI: 538003043.

Date/timePositionNaut miles runAvg speedWind from/ knotsBaromVisibWave heightAir tempDewpointWater temp
2016-Aug-24 18:33S 29°04' E 034°05'1413.8
2016-Aug-24 17:34S 29°08' E 033°50'1414.2
2016-Aug-24 16:34S 29°12' E 033°34'1413.9
2016-Aug-24 15:33S 29°16' E 033°19'1413.6
2016-Aug-24 14:33S 29°20' E 033°04'1313.0
2016-Aug-24 13:33S 29°23' E 032°49'1212.4
2016-Aug-24 12:33S 29°27' E 032°36'1212.1
2016-Aug-24 11:33S 29°31' E 032°23'1211.8
2016-Aug-24 10:33S 29°34' E 032°10'1211.8
2016-Aug-24 09:33S 29°37' E 031°57'1111.4
2016-Aug-24 08:33S 29°41' E 031°44'1212.5
2016-Aug-24 07:33S 29°44' E 031°30'1413.7
2016-Aug-24 06:34S 29°48' E 031°15'12 5.9
2016-Aug-24 04:30S 29°52' E 031°02'0 0.0
2016-Aug-24 03:33S 29°52' E 031°02'0 0.0
2016-Aug-24 02:30S 29°52' E 031°02'0 0.0
2016-Aug-24 01:32S 29°52' E 031°02'0 0.0
2016-Aug-24 00:32S 29°52' E 031°02'0 0.0
2016-Aug-23 23:33S 29°52' E 031°02'0 0.0
2016-Aug-23 22:33S 29°52' E 031°02'0 0.0
2016-Aug-23 21:33S 29°52' E 031°02'0 0.0
2016-Aug-23 20:33S 29°52' E 031°02'0 0.0
2016-Aug-23 19:33S 29°52' E 031°02'0 0.0
2016-Aug-23 18:33S 29°52' E 031°02'4 3.9
2016-Aug-23 17:33S 29°50' E 031°05'8 7.8
2016-Aug-23 16:34S 29°50' E 031°14'1 0.9
2016-Aug-23 15:33S 29°51' E 031°14'2 1.5
2016-Aug-23 14:33S 29°52' E 031°13'1 1.4
2016-Aug-23 13:33S 29°54' E 031°13'6 5.6
2016-Aug-23 12:33S 29°48' E 031°14'1 0.7
2016-Aug-23 11:33S 29°47' E 031°14'1 0.9
2016-Aug-23 10:33S 29°47' E 031°13'2 1.9
2016-Aug-23 09:34S 29°49' E 031°13'1 1.1
2016-Aug-23 08:33S 29°48' E 031°13'2 2.3
2016-Aug-23 07:34S 29°50' E 031°13'3 2.7
2016-Aug-23 06:33S 29°53' E 031°13'6 5.9
2016-Aug-23 05:34S 29°57' E 031°08'1010.4
2016-Aug-23 04:33S 30°06' E 031°01'1514.8
2016-Aug-23 03:33S 30°19' E 030°53'  
Track history (hours):
 
Tides and Currents Weather Stations Pressure Air Temp Water Temp Dewpoint Dewpoint Depression Visibility Wind Speed Wind Dir Waves Ship Positions

Star Epsilon

Last reported at 2016-Aug-24 18:33 UTC. Time now 2016-Sep-28 11:57 UTC.
Position S 29°04' E 034°05'.
Warning: this ship's position is 34 days out of date.

Length 189 m; draft 9.9 m.

Type: Ship. MMSI: 538003043.

Date/timePositionNaut miles runAvg speedWind from/ knotsBaromVisibWave heightAir tempDewpointWater temp
2016-Aug-24 18:33S 29°04' E 034°05'1413.8
2016-Aug-24 17:34S 29°08' E 033°50'1414.2
2016-Aug-24 16:34S 29°12' E 033°34'1413.9
2016-Aug-24 15:33S 29°16' E 033°19'1413.6
2016-Aug-24 14:33S 29°20' E 033°04'1313.0
2016-Aug-24 13:33S 29°23' E 032°49'1212.4
2016-Aug-24 12:33S 29°27' E 032°36'1212.1
2016-Aug-24 11:33S 29°31' E 032°23'1211.8
2016-Aug-24 10:33S 29°34' E 032°10'1211.8
2016-Aug-24 09:33S 29°37' E 031°57'1111.4
2016-Aug-24 08:33S 29°41' E 031°44'1212.5
2016-Aug-24 07:33S 29°44' E 031°30'1413.7
2016-Aug-24 06:34S 29°48' E 031°15'12 5.9
2016-Aug-24 04:30S 29°52' E 031°02'0 0.0
2016-Aug-24 03:33S 29°52' E 031°02'0 0.0
2016-Aug-24 02:30S 29°52' E 031°02'0 0.0
2016-Aug-24 01:32S 29°52' E 031°02'0 0.0
2016-Aug-24 00:32S 29°52' E 031°02'0 0.0
2016-Aug-23 23:33S 29°52' E 031°02'0 0.0
2016-Aug-23 22:33S 29°52' E 031°02'0 0.0
2016-Aug-23 21:33S 29°52' E 031°02'0 0.0
2016-Aug-23 20:33S 29°52' E 031°02'0 0.0
2016-Aug-23 19:33S 29°52' E 031°02'0 0.0
2016-Aug-23 18:33S 29°52' E 031°02'4 3.9
2016-Aug-23 17:33S 29°50' E 031°05'8 7.8
2016-Aug-23 16:34S 29°50' E 031°14'1 0.9
2016-Aug-23 15:33S 29°51' E 031°14'2 1.5
2016-Aug-23 14:33S 29°52' E 031°13'1 1.4
2016-Aug-23 13:33S 29°54' E 031°13'6 5.6
2016-Aug-23 12:33S 29°48' E 031°14'1 0.7
2016-Aug-23 11:33S 29°47' E 031°14'1 0.9
2016-Aug-23 10:33S 29°47' E 031°13'2 1.9
2016-Aug-23 09:34S 29°49' E 031°13'1 1.1
2016-Aug-23 08:33S 29°48' E 031°13'2 2.3
2016-Aug-23 07:34S 29°50' E 031°13'3 2.7
2016-Aug-23 06:33S 29°53' E 031°13'6 5.9
2016-Aug-23 05:34S 29°57' E 031°08'1010.4
2016-Aug-23 04:33S 30°06' E 031°01'1514.8
2016-Aug-23 03:33S 30°19' E 030°53'  

Dump ship's entire track history